Time;durP1;ratioP1;P1;durP2;ratioP2;P2;SDS_P1;SDS_P2;PMS_P1;PMS_P2;Temp;Humidity;BMP_temperature;BMP_pressure;BME280_temperature;BME280_humidity;BME280_pressure;Samples;Min_cycle;Max_cycle;Signal;HPM_P1;HPM_P2
2021/12/30 00:01:14;;;;;;;12.05;6.53;;;9.30;80.80;;;;;;5072353;28;20479;-66
2021/12/30 00:03:40;;;;;;;17.17;7.47;;;9.30;81.10;;;;;;5071685;28;20043;-66
2021/12/30 00:06:07;;;;;;;11.25;7.18;;;9.30;81.10;;;;;;5070157;28;20526;-66
2021/12/30 00:08:34;;;;;;;10.88;6.22;;;9.30;81.10;;;;;;5069156;28;20048;-67
2021/12/30 00:11:00;;;;;;;11.27;5.82;;;9.30;81.10;;;;;;5069871;28;20056;-66
2021/12/30 00:16:10;;;;;;;17.23;7.93;;;9.30;80.70;;;;;;5075182;28;20035;-66
2021/12/30 00:18:36;;;;;;;11.57;6.07;;;9.30;80.70;;;;;;5072961;28;20052;-66
2021/12/30 00:21:02;;;;;;;13.18;6.55;;;9.40;80.70;;;;;;5070373;28;20071;-66
2021/12/30 00:23:28;;;;;;;14.77;6.07;;;9.40;80.60;;;;;;5070451;28;20071;-67
2021/12/30 00:25:53;;;;;;;8.48;5.38;;;9.40;80.40;;;;;;5073460;28;20028;-66
2021/12/30 00:28:22;;;;;;;11.52;5.57;;;9.50;80.20;;;;;;5074007;28;20027;-65
2021/12/30 00:30:50;;;;;;;11.45;5.40;;;9.50;80.00;;;;;;5074803;28;20052;-66
2021/12/30 00:33:16;;;;;;;15.25;6.93;;;9.60;79.90;;;;;;5074107;28;20318;-65
2021/12/30 00:35:43;;;;;;;18.67;11.68;;;9.60;79.60;;;;;;5068264;28;20036;-67
2021/12/30 00:38:09;;;;;;;21.23;12.32;;;9.50;79.20;;;;;;5048522;28;20024;-66
2021/12/30 00:40:37;;;;;;;25.20;16.20;;;9.30;79.80;;;;;;5048765;28;20036;-67
2021/12/30 00:43:05;;;;;;;23.88;17.23;;;9.30;80.20;;;;;;5053837;28;20036;-67
2021/12/30 00:45:32;;;;;;;25.85;17.58;;;9.30;80.00;;;;;;5048934;28;20029;-66
2021/12/30 00:47:59;;;;;;;30.08;18.90;;;9.30;79.80;;;;;;5047675;28;20044;-67
2021/12/30 00:50:26;;;;;;;27.50;19.13;;;9.30;79.80;;;;;;5067490;28;20064;-67
2021/12/30 00:52:52;;;;;;;31.45;20.65;;;9.40;79.40;;;;;;5070946;28;20439;-67
2021/12/30 00:55:18;;;;;;;28.73;19.88;;;9.40;79.30;;;;;;5067275;28;20045;-67
2021/12/30 00:57:44;;;;;;;27.83;19.60;;;9.40;79.20;;;;;;5049140;28;20659;-67
2021/12/30 01:00:14;;;;;;;28.65;20.50;;;9.40;79.20;;;;;;5079241;28;21218;-67
2021/12/30 01:02:41;;;;;;;32.63;21.23;;;9.40;78.90;;;;;;5071673;28;20449;-67
2021/12/30 01:05:08;;;;;;;30.00;21.23;;;9.40;78.50;;;;;;5069535;28;20032;-67
2021/12/30 01:07:33;;;;;;;29.67;19.65;;;9.30;78.50;;;;;;5069781;28;20028;-67
2021/12/30 01:10:00;;;;;;;27.48;19.13;;;9.30;78.60;;;;;;5062178;28;20032;-67
2021/12/30 01:12:27;;;;;;;26.63;19.90;;;9.40;78.60;;;;;;5070913;28;20033;-67
2021/12/30 01:14:53;;;;;;;26.20;18.42;;;9.30;78.40;;;;;;5073907;28;20040;-66
2021/12/30 01:17:27;;;;;;;24.25;18.15;;;9.40;78.40;;;;;;5067071;28;20024;-67
2021/12/30 01:19:53;;;;;;;26.58;19.55;;;9.30;78.30;;;;;;5066571;28;20503;-67
2021/12/30 01:22:22;;;;;;;27.00;18.15;;;9.30;78.10;;;;;;5069453;28;20021;-67
2021/12/30 01:24:49;;;;;;;25.58;18.45;;;9.30;78.30;;;;;;5067032;28;20036;-67
2021/12/30 01:27:40;;;;;;;28.67;20.45;;;9.30;78.50;;;;;;5071183;28;20032;-66
2021/12/30 01:30:10;;;;;;;24.80;18.65;;;9.30;78.60;;;;;;5075628;28;20032;-67
2021/12/30 01:32:37;;;;;;;29.35;20.50;;;9.30;78.40;;;;;;5068955;28;20081;-67
2021/12/30 01:35:05;;;;;;;26.90;19.80;;;9.30;78.40;;;;;;5068840;28;20025;-68
2021/12/30 01:37:31;;;;;;;31.48;20.75;;;9.30;78.50;;;;;;5062160;28;20048;-67
2021/12/30 01:39:57;;;;;;;33.20;21.65;;;9.20;78.50;;;;;;5071242;28;20016;-67
2021/12/30 01:42:23;;;;;;;29.40;20.55;;;9.20;78.50;;;;;;5072201;28;20024;-67
2021/12/30 01:44:49;;;;;;;29.15;20.55;;;9.30;78.70;;;;;;5074197;28;20530;-67
2021/12/30 01:47:15;;;;;;;30.88;21.02;;;9.20;78.50;;;;;;5072747;28;20029;-67
2021/12/30 01:49:41;;;;;;;31.83;20.58;;;9.20;78.40;;;;;;5074625;28;20090;-67
2021/12/30 01:52:07;;;;;;;33.20;21.02;;;9.10;78.60;;;;;;5071850;28;20082;-67
2021/12/30 01:54:34;;;;;;;28.30;19.88;;;9.20;78.80;;;;;;5073392;28;20032;-67
2021/12/30 01:57:04;;;;;;;29.15;18.90;;;9.20;79.60;;;;;;5072771;28;20037;-68
2021/12/30 01:59:29;;;;;;;26.67;19.23;;;9.30;78.90;;;;;;5077006;28;20035;-67
2021/12/30 02:01:59;;;;;;;27.98;18.98;;;9.40;78.80;;;;;;5075708;28;20029;-68
2021/12/30 02:04:26;;;;;;;25.63;18.50;;;9.40;78.70;;;;;;5072872;28;20016;-66
2021/12/30 02:06:53;;;;;;;29.52;18.70;;;9.50;78.50;;;;;;5073413;28;20437;-66
2021/12/30 02:09:20;;;;;;;25.23;17.95;;;9.50;78.40;;;;;;5071867;28;20533;-66
2021/12/30 02:11:47;;;;;;;29.65;17.73;;;9.60;78.30;;;;;;5069918;28;20142;-66
2021/12/30 02:14:14;;;;;;;27.65;18.33;;;9.60;78.20;;;;;;5072146;28;20020;-66
2021/12/30 02:16:40;;;;;;;54.65;30.45;;;9.60;78.20;;;;;;5072507;28;20035;-66
2021/12/30 02:19:06;;;;;;;33.05;21.05;;;9.60;78.30;;;;;;5070736;28;20028;-66
2021/12/30 02:21:32;;;;;;;29.67;20.58;;;9.60;78.40;;;;;;5071543;28;20078;-67
2021/12/30 02:23:58;;;;;;;30.05;18.25;;;9.70;78.40;;;;;;5073082;28;20025;-66
2021/12/30 02:26:24;;;;;;;29.40;19.25;;;9.60;77.60;;;;;;5074854;28;20033;-67
2021/12/30 02:28:51;;;;;;;27.27;17.70;;;9.60;77.80;;;;;;5075228;28;20035;-66
2021/12/30 02:31:23;;;;;;;23.92;17.15;;;9.60;77.80;;;;;;5071020;28;20034;-67
2021/12/30 02:33:49;;;;;;;23.63;17.33;;;9.60;77.80;;;;;;5074073;28;20070;-67
2021/12/30 02:36:21;;;;;;;24.80;15.38;;;9.60;77.60;;;;;;5073082;28;20368;-66
2021/12/30 02:38:47;;;;;;;24.85;18.00;;;9.60;77.90;;;;;;5071067;28;20132;-66
2021/12/30 02:41:34;;;;;;;27.38;17.73;;;9.60;77.80;;;;;;5067272;28;20111;-67
2021/12/30 02:44:04;;;;;;;27.30;17.85;;;9.60;77.70;;;;;;5069922;28;20023;-66
2021/12/30 02:46:32;;;;;;;25.00;17.42;;;9.60;77.70;;;;;;5071397;28;20067;-67
2021/12/30 02:49:00;;;;;;;23.08;15.43;;;9.70;77.70;;;;;;5073029;28;20024;-67
2021/12/30 02:51:27;;;;;;;24.77;16.40;;;9.70;77.80;;;;;;5071104;28;20028;-67
2021/12/30 02:53:54;;;;;;;23.48;15.63;;;9.70;77.80;;;;;;5070913;28;20040;-67
2021/12/30 02:56:22;;;;;;;24.95;15.32;;;9.70;77.70;;;;;;5073297;28;20032;-67
2021/12/30 02:58:47;;;;;;;15.38;10.13;;;9.80;77.80;;;;;;5071698;28;20032;-66
2021/12/30 03:01:27;;;;;;;21.38;14.95;;;9.80;77.90;;;;;;5069221;28;20286;-67
2021/12/30 03:03:54;;;;;;;16.48;8.15;;;9.70;78.10;;;;;;5072537;28;20397;-66
2021/12/30 03:06:20;;;;;;;34.22;21.27;;;9.70;78.40;;;;;;5070189;28;20143;-68
2021/12/30 03:08:47;;;;;;;23.60;14.88;;;9.70;78.50;;;;;;5070647;28;20055;-66
2021/12/30 03:11:14;;;;;;;29.48;17.98;;;9.70;78.60;;;;;;5072041;28;20041;-68
2021/12/30 03:13:42;;;;;;;21.15;14.13;;;9.70;78.60;;;;;;5069726;28;20127;-68
2021/12/30 03:16:16;;;;;;;10.55;6.75;;;9.70;78.70;;;;;;5074785;28;20028;-66
2021/12/30 03:18:44;;;;;;;9.82;5.80;;;9.70;79.20;;;;;;5072501;28;20032;-67
2021/12/30 03:21:14;;;;;;;11.13;6.53;;;9.70;79.00;;;;;;5077027;28;20031;-68
2021/12/30 03:23:40;;;;;;;8.73;4.80;;;9.70;79.10;;;;;;5086181;28;20036;-67
2021/12/30 03:26:06;;;;;;;11.13;6.00;;;9.60;79.10;;;;;;5085579;28;20352;-68
2021/12/30 03:28:33;;;;;;;15.70;10.65;;;9.60;79.20;;;;;;5077173;28;20033;-67
2021/12/30 03:30:59;;;;;;;13.05;7.28;;;9.60;79.30;;;;;;5070252;28;20036;-67
2021/12/30 03:33:29;;;;;;;8.88;5.57;;;9.60;79.50;;;;;;5070183;28;20028;-67
2021/12/30 03:35:59;;;;;;;8.07;5.07;;;9.60;79.50;;;;;;5067208;28;20081;-67
2021/12/30 03:38:26;;;;;;;7.47;4.10;;;9.70;79.60;;;;;;5088530;28;20024;-66
2021/12/30 03:40:51;;;;;;;7.45;4.25;;;9.70;79.40;;;;;;5077934;28;20454;-66
2021/12/30 03:43:17;;;;;;;8.85;6.50;;;9.70;79.30;;;;;;5082276;28;20028;-66
2021/12/30 03:45:44;;;;;;;11.43;7.35;;;9.80;79.20;;;;;;5088716;28;20051;-67
2021/12/30 03:48:11;;;;;;;7.60;4.97;;;9.80;79.00;;;;;;5080448;28;20029;-67
2021/12/30 03:50:43;;;;;;;11.15;5.68;;;9.80;78.90;;;;;;5069193;28;20524;-66
2021/12/30 03:53:09;;;;;;;8.57;5.03;;;9.80;78.90;;;;;;5070398;28;20024;-67
2021/12/30 03:55:35;;;;;;;11.35;5.88;;;9.80;78.80;;;;;;5071273;28;20101;-66
2021/12/30 03:58:01;;;;;;;13.73;7.75;;;9.90;78.70;;;;;;5086817;28;20028;-66
2021/12/30 04:00:28;;;;;;;11.82;5.97;;;9.90;78.70;;;;;;5083313;28;20490;-66
2021/12/30 04:02:56;;;;;;;7.03;5.18;;;9.80;78.70;;;;;;5086274;28;20480;-67
2021/12/30 04:05:24;;;;;;;8.65;4.70;;;9.80;78.90;;;;;;5084834;28;20032;-67
2021/12/30 04:07:50;;;;;;;9.80;5.10;;;9.80;79.00;;;;;;5074446;28;20378;-67
2021/12/30 04:10:21;;;;;;;8.38;5.30;;;9.80;79.00;;;;;;5101305;28;20048;-67
2021/12/30 04:13:05;;;;;;;10.65;4.78;;;9.80;78.90;;;;;;5076935;28;20103;-67
2021/12/30 04:15:31;;;;;;;8.40;4.40;;;9.90;78.90;;;;;;5080336;28;20036;-67
2021/12/30 04:17:57;;;;;;;10.45;5.53;;;9.90;78.80;;;;;;5069641;28;20032;-67
2021/12/30 04:20:23;;;;;;;12.95;5.93;;;9.90;78.70;;;;;;5069365;28;20032;-67
2021/12/30 04:22:48;;;;;;;11.63;7.32;;;9.90;78.70;;;;;;5075924;28;20462;-67
2021/12/30 04:25:16;;;;;;;9.13;5.07;;;9.80;78.90;;;;;;5071231;28;20060;-66
2021/12/30 04:27:42;;;;;;;9.70;5.07;;;9.80;79.00;;;;;;5082249;28;20044;-67
2021/12/30 04:30:10;;;;;;;8.88;4.70;;;9.70;79.30;;;;;;5071793;28;20024;-67
2021/12/30 04:32:36;;;;;;;8.90;4.95;;;9.70;79.60;;;;;;5087944;28;20024;-66
2021/12/30 04:35:02;;;;;;;8.05;4.65;;;9.70;79.80;;;;;;5078145;28;20063;-67
2021/12/30 04:37:28;;;;;;;6.63;4.75;;;9.60;79.90;;;;;;5071270;28;20059;-66
2021/12/30 04:39:54;;;;;;;9.32;4.70;;;9.50;80.10;;;;;;5088556;28;20064;-67
2021/12/30 04:42:20;;;;;;;10.10;4.93;;;9.50;80.30;;;;;;5085063;28;20514;-67
2021/12/30 04:44:48;;;;;;;10.15;5.38;;;9.50;80.40;;;;;;5079639;28;20561;-67
2021/12/30 04:47:14;;;;;;;6.65;4.28;;;9.60;80.50;;;;;;5079027;28;20155;-67
2021/12/30 04:49:40;;;;;;;7.93;4.45;;;9.60;80.40;;;;;;5081796;28;20035;-66
2021/12/30 04:52:07;;;;;;;10.70;4.28;;;9.70;80.50;;;;;;5088329;28;20364;-66
2021/12/30 04:54:32;;;;;;;8.25;4.43;;;9.70;80.30;;;;;;5089330;28;20024;-67
2021/12/30 04:56:59;;;;;;;7.50;4.50;;;9.70;80.30;;;;;;5086459;28;20042;-67
2021/12/30 04:59:24;;;;;;;7.93;4.20;;;9.80;80.30;;;;;;5086960;28;20059;-67
2021/12/30 05:01:50;;;;;;;8.07;4.15;;;9.80;80.10;;;;;;5070884;28;20088;-66
2021/12/30 05:04:16;;;;;;;9.82;4.15;;;9.80;80.10;;;;;;5086706;28;20459;-67
2021/12/30 05:06:42;;;;;;;10.63;4.53;;;9.80;80.00;;;;;;5083361;28;20135;-67
2021/12/30 05:09:09;;;;;;;9.25;3.80;;;9.80;80.30;;;;;;5071209;28;20107;-67
2021/12/30 05:11:39;;;;;;;7.35;4.55;;;9.80;80.50;;;;;;5070583;28;20068;-66
2021/12/30 05:14:05;;;;;;;7.80;4.15;;;9.80;80.70;;;;;;5068401;28;20025;-67
2021/12/30 05:16:30;;;;;;;9.45;4.38;;;9.80;80.70;;;;;;5090619;28;20442;-68
2021/12/30 05:18:57;;;;;;;9.77;4.90;;;9.80;80.90;;;;;;5085316;28;20052;-68
2021/12/30 05:21:24;;;;;;;9.00;5.28;;;9.80;80.90;;;;;;5080283;28;20086;-68
2021/12/30 05:23:49;;;;;;;8.73;5.90;;;9.80;81.00;;;;;;5092609;28;20028;-67
2021/12/30 05:26:16;;;;;;;9.85;5.70;;;9.80;81.20;;;;;;5074247;28;20048;-67
2021/12/30 05:28:42;;;;;;;12.43;6.25;;;9.70;81.30;;;;;;5080406;28;20029;-67
2021/12/30 05:31:08;;;;;;;12.82;7.13;;;9.70;81.60;;;;;;5087247;28;20077;-67
2021/12/30 05:33:34;;;;;;;14.32;7.10;;;9.70;81.90;;;;;;5089402;28;20430;-67
2021/12/30 05:36:00;;;;;;;13.50;7.30;;;9.70;82.00;;;;;;5074145;28;20048;-66
2021/12/30 05:38:26;;;;;;;12.23;7.63;;;9.70;82.20;;;;;;5072675;28;20025;-66
2021/12/30 05:40:52;;;;;;;12.57;6.90;;;9.70;82.20;;;;;;5072655;28;20032;-66
2021/12/30 05:43:18;;;;;;;15.30;7.60;;;9.70;82.30;;;;;;5079524;28;20511;-66
2021/12/30 05:45:44;;;;;;;13.38;7.88;;;9.70;82.40;;;;;;5071221;28;20032;-67
2021/12/30 05:48:09;;;;;;;13.40;7.25;;;9.80;82.50;;;;;;5072167;28;20029;-66
2021/12/30 05:50:36;;;;;;;12.43;7.68;;;9.80;82.40;;;;;;5074533;28;20028;-67
2021/12/30 05:53:03;;;;;;;11.32;6.63;;;9.80;82.40;;;;;;5072310;28;20040;-66
2021/12/30 05:55:29;;;;;;;11.32;6.43;;;9.90;82.50;;;;;;5072845;28;20040;-66
2021/12/30 05:57:55;;;;;;;12.60;7.22;;;9.90;82.30;;;;;;5078290;28;20080;-66
2021/12/30 06:00:23;;;;;;;12.10;7.60;;;9.90;82.30;;;;;;5069406;28;20032;-66
2021/12/30 06:02:50;;;;;;;9.80;7.03;;;9.90;82.40;;;;;;5069828;28;20130;-66
2021/12/30 06:05:15;;;;;;;10.95;6.82;;;9.90;82.50;;;;;;5104096;28;20456;-67
2021/12/30 06:07:42;;;;;;;11.95;7.57;;;9.80;82.50;;;;;;5078319;28;20056;-66
2021/12/30 06:10:09;;;;;;;13.32;7.18;;;9.80;82.80;;;;;;5086401;28;20056;-68
2021/12/30 06:12:35;;;;;;;9.65;6.63;;;9.80;82.90;;;;;;5090626;28;20040;-66
2021/12/30 06:15:00;;;;;;;12.73;6.68;;;9.80;83.00;;;;;;5088700;28;20052;-66
2021/12/30 06:17:26;;;;;;;16.80;8.40;;;9.80;83.00;;;;;;5088545;28;20059;-67
2021/12/30 06:19:52;;;;;;;15.93;8.77;;;9.80;82.90;;;;;;5073140;28;20029;-66
2021/12/30 06:22:18;;;;;;;15.05;9.13;;;9.80;82.90;;;;;;5089913;28;20032;-68
2021/12/30 06:24:44;;;;;;;12.13;7.43;;;9.80;82.80;;;;;;5078263;28;20385;-67
2021/12/30 06:27:10;;;;;;;12.60;7.40;;;9.80;83.00;;;;;;5073905;28;20469;-67
2021/12/30 06:29:36;;;;;;;11.88;7.32;;;9.80;83.20;;;;;;5090582;28;20090;-66
2021/12/30 06:32:03;;;;;;;11.32;7.60;;;9.80;83.00;;;;;;5075367;28;20024;-67
2021/12/30 06:34:29;;;;;;;11.60;7.30;;;9.90;83.00;;;;;;5071798;28;20036;-66
2021/12/30 06:36:55;;;;;;;11.50;7.68;;;9.90;82.90;;;;;;5075860;28;20028;-66
2021/12/30 06:39:21;;;;;;;12.38;7.18;;;10.00;82.80;;;;;;5089271;28;20023;-66
2021/12/30 06:41:46;;;;;;;11.15;6.60;;;10.00;82.60;;;;;;5086390;28;20101;-67
2021/12/30 06:44:12;;;;;;;10.50;6.60;;;10.00;82.30;;;;;;5079082;28;20114;-66
2021/12/30 06:46:39;;;;;;;11.18;6.20;;;10.10;82.40;;;;;;5086819;28;20211;-67
2021/12/30 06:49:08;;;;;;;10.02;6.63;;;10.00;82.30;;;;;;5081516;28;20070;-67
2021/12/30 06:51:35;;;;;;;12.27;6.47;;;10.00;83.00;;;;;;5081927;28;20057;-66
2021/12/30 06:54:05;;;;;;;12.55;7.07;;;10.00;82.50;;;;;;5077630;28;20025;-67
2021/12/30 06:56:31;;;;;;;10.02;6.28;;;10.00;82.60;;;;;;5071099;28;20129;-67
2021/12/30 06:58:57;;;;;;;12.20;6.38;;;10.10;82.70;;;;;;5086526;28;20032;-66
2021/12/30 07:01:23;;;;;;;13.07;7.00;;;10.10;82.70;;;;;;5077218;28;20020;-67
2021/12/30 07:03:49;;;;;;;12.35;6.43;;;10.10;82.80;;;;;;5087855;28;20385;-67
2021/12/30 07:06:14;;;;;;;12.57;7.68;;;10.20;82.80;;;;;;5069179;28;20044;-66
2021/12/30 07:08:41;;;;;;;15.30;10.27;;;10.20;82.80;;;;;;5071121;28;20493;-67
2021/12/30 07:11:07;;;;;;;13.15;9.10;;;10.20;82.60;;;;;;5067920;28;20067;-66
2021/12/30 07:13:33;;;;;;;16.38;10.30;;;10.20;82.70;;;;;;5070066;28;20036;-65
2021/12/30 07:15:59;;;;;;;17.17;11.63;;;10.20;82.60;;;;;;5069887;28;20048;-68
2021/12/30 07:18:25;;;;;;;15.85;10.43;;;10.20;82.50;;;;;;5066565;28;20074;-67
2021/12/30 07:20:51;;;;;;;18.15;11.52;;;10.20;82.50;;;;;;5068358;28;20032;-66
2021/12/30 07:23:17;;;;;;;16.48;11.00;;;10.20;82.30;;;;;;5068550;28;20374;-67
2021/12/30 07:25:42;;;;;;;17.13;10.95;;;10.20;82.30;;;;;;5068371;28;20522;-67
2021/12/30 07:28:08;;;;;;;16.35;12.13;;;10.20;82.30;;;;;;5067455;28;20027;-67
2021/12/30 07:30:34;;;;;;;18.45;10.55;;;10.20;81.80;;;;;;5068158;28;20496;-67
2021/12/30 07:33:05;;;;;;;19.85;11.63;;;10.20;82.10;;;;;;5068465;28;20032;-67
2021/12/30 07:35:32;;;;;;;22.10;10.82;;;10.20;82.00;;;;;;5071613;28;20028;-68
2021/12/30 07:37:58;;;;;;;17.98;11.25;;;10.10;82.00;;;;;;5074186;28;20102;-67
2021/12/30 07:40:24;;;;;;;18.77;10.60;;;10.20;82.10;;;;;;5067411;28;20063;-67
2021/12/30 07:42:49;;;;;;;20.35;11.57;;;10.20;81.90;;;;;;5069334;28;20129;-68
2021/12/30 07:45:16;;;;;;;16.17;11.30;;;10.20;82.10;;;;;;5066758;28;20033;-67
2021/12/30 07:47:42;;;;;;;24.90;14.18;;;10.20;82.00;;;;;;5068450;28;20085;-67
2021/12/30 07:50:10;;;;;;;18.05;12.00;;;10.30;81.90;;;;;;5068665;28;20103;-67
2021/12/30 07:52:37;;;;;;;19.02;13.23;;;10.30;82.30;;;;;;5067650;28;20384;-68
2021/12/30 07:55:08;;;;;;;19.02;11.98;;;10.40;81.70;;;;;;5067852;28;20097;-68
2021/12/30 07:57:33;;;;;;;17.48;11.73;;;10.50;81.50;;;;;;5068691;28;20493;-67
2021/12/30 08:00:00;;;;;;;18.85;11.20;;;10.50;81.10;;;;;;5069332;28;20056;-67
2021/12/30 08:02:26;;;;;;;16.23;11.50;;;10.50;81.10;;;;;;5068348;28;20143;-67
2021/12/30 08:04:52;;;;;;;17.00;11.63;;;10.40;81.20;;;;;;5079387;28;20251;-66
2021/12/30 08:07:22;;;;;;;17.10;10.73;;;10.40;81.10;;;;;;5082304;28;20054;-66
2021/12/30 08:09:48;;;;;;;19.08;11.13;;;10.30;81.20;;;;;;5066778;28;20512;-69
2021/12/30 08:12:14;;;;;;;13.40;9.75;;;10.30;81.30;;;;;;5068197;28;20028;-68
2021/12/30 08:14:40;;;;;;;15.98;10.70;;;10.40;81.20;;;;;;5070396;28;20461;-67
2021/12/30 08:17:06;;;;;;;15.32;10.05;;;10.40;81.20;;;;;;5069247;28;20028;-71
2021/12/30 08:19:32;;;;;;;17.15;10.32;;;10.50;81.40;;;;;;5070002;28;20039;-69
2021/12/30 08:21:58;;;;;;;15.82;10.18;;;10.60;80.90;;;;;;5069443;28;20020;-72
2021/12/30 08:24:24;;;;;;;18.70;10.18;;;10.60;80.80;;;;;;5057751;28;20083;-68
2021/12/30 08:26:49;;;;;;;19.75;10.75;;;10.50;80.90;;;;;;5067650;28;20025;-70
2021/12/30 08:29:16;;;;;;;17.13;10.18;;;10.70;81.00;;;;;;5057857;28;20056;-70
2021/12/30 08:31:42;;;;;;;18.95;10.23;;;10.70;80.60;;;;;;5066017;28;20035;-72
2021/12/30 08:34:08;;;;;;;20.58;10.02;;;10.60;80.40;;;;;;5067616;28;20155;-71
2021/12/30 08:36:34;;;;;;;21.00;10.73;;;10.60;80.60;;;;;;5070027;28;20035;-72
2021/12/30 08:39:00;;;;;;;20.05;12.45;;;10.70;80.60;;;;;;5070415;28;20025;-69
2021/12/30 08:41:26;;;;;;;20.73;11.32;;;10.70;80.20;;;;;;5069036;28;20052;-69
2021/12/30 08:43:52;;;;;;;17.70;12.32;;;10.70;80.20;;;;;;5070618;28;20038;-68
2021/12/30 08:46:18;;;;;;;18.73;12.30;;;10.70;79.10;;;;;;5071645;28;20037;-69
2021/12/30 08:48:44;;;;;;;17.65;12.43;;;10.70;79.50;;;;;;5076254;28;20381;-67
2021/12/30 08:51:10;;;;;;;17.98;12.25;;;10.60;79.90;;;;;;5092131;28;20048;-68
2021/12/30 08:53:41;;;;;;;23.02;12.35;;;10.60;80.00;;;;;;5094361;28;20062;-69
2021/12/30 08:56:14;;;;;;;18.13;11.60;;;10.60;79.90;;;;;;5093578;28;20034;-65
2021/12/30 08:58:43;;;;;;;17.38;11.27;;;10.50;80.30;;;;;;5092581;28;20031;-71
2021/12/30 09:01:09;;;;;;;15.98;11.27;;;10.50;80.20;;;;;;5060198;28;20063;-74
2021/12/30 09:03:35;;;;;;;15.05;11.15;;;10.60;80.80;;;;;;5071588;28;20056;-69
2021/12/30 09:06:01;;;;;;;18.00;12.07;;;10.60;80.50;;;;;;5066429;28;20045;-74
2021/12/30 09:08:27;;;;;;;16.33;11.98;;;10.60;80.60;;;;;;5071904;28;20480;-65
2021/12/30 09:10:53;;;;;;;16.73;12.38;;;10.60;80.60;;;;;;5072906;28;20040;-65
2021/12/30 09:13:20;;;;;;;21.40;13.25;;;10.60;80.60;;;;;;5071381;28;20024;-69
2021/12/30 09:15:46;;;;;;;19.55;12.27;;;10.50;80.70;;;;;;5065802;28;20035;-67
2021/12/30 09:18:13;;;;;;;20.08;13.15;;;10.50;81.10;;;;;;5072111;28;20036;-66
2021/12/30 09:20:41;;;;;;;20.85;12.93;;;10.50;81.30;;;;;;5073614;28;20181;-68
2021/12/30 09:23:09;;;;;;;23.27;13.10;;;10.50;81.40;;;;;;5063267;28;20447;-74
2021/12/30 09:25:56;;;;;;;21.27;12.98;;;10.60;81.50;;;;;;5080064;28;20072;-70
2021/12/30 09:28:24;;;;;;;21.77;12.98;;;10.60;81.50;;;;;;5066603;28;20044;-75
2021/12/30 09:30:50;;;;;;;19.48;12.00;;;10.60;81.30;;;;;;5072909;28;20074;-69
2021/12/30 09:33:17;;;;;;;24.92;13.13;;;10.60;81.30;;;;;;5072028;28;20032;-74
2021/12/30 09:35:47;;;;;;;25.30;14.55;;;10.80;81.30;;;;;;5074468;28;20025;-69
2021/12/30 09:38:13;;;;;;;21.77;13.50;;;11.00;80.90;;;;;;5077702;28;20162;-68
2021/12/30 09:40:39;;;;;;;21.45;13.93;;;11.10;80.50;;;;;;5079763;28;20464;-68
2021/12/30 09:43:09;;;;;;;19.67;12.50;;;11.20;80.10;;;;;;5085682;28;20040;-68
2021/12/30 09:45:38;;;;;;;22.60;13.50;;;11.30;79.90;;;;;;5073595;28;20097;-66
2021/12/30 09:48:07;;;;;;;20.85;12.50;;;11.40;79.70;;;;;;5072731;28;20032;-71
2021/12/30 09:50:40;;;;;;;19.15;11.13;;;11.40;79.20;;;;;;5072370;28;20036;-69
2021/12/30 09:53:06;;;;;;;19.65;10.60;;;11.40;78.70;;;;;;5072344;28;20077;-67
2021/12/30 09:55:32;;;;;;;17.80;11.45;;;11.40;79.40;;;;;;5072044;28;20047;-68
2021/12/30 09:57:59;;;;;;;18.90;11.98;;;11.50;78.50;;;;;;5071286;28;20086;-67
2021/12/30 10:00:25;;;;;;;20.83;10.75;;;11.60;77.80;;;;;;5071634;28;20231;-66
2021/12/30 10:02:51;;;;;;;16.20;10.65;;;11.60;77.50;;;;;;5071950;28;20076;-68
2021/12/30 10:05:22;;;;;;;17.92;11.43;;;11.60;77.20;;;;;;5083301;28;20036;-70
2021/12/30 10:07:48;;;;;;;19.45;11.45;;;11.70;77.70;;;;;;5075281;28;20028;-70
2021/12/30 10:10:34;;;;;;;18.95;11.23;;;11.80;77.80;;;;;;5068841;28;20053;-68
2021/12/30 10:13:13;;;;;;;16.70;10.85;;;12.00;77.50;;;;;;5073329;28;20024;-68
2021/12/30 10:15:44;;;;;;;20.48;10.73;;;12.10;77.00;;;;;;5071997;28;20039;-67
2021/12/30 10:18:11;;;;;;;22.17;11.98;;;12.20;76.70;;;;;;5072433;28;20027;-69
2021/12/30 10:20:41;;;;;;;18.33;10.40;;;12.30;76.40;;;;;;5070914;28;20036;-69
2021/12/30 10:23:22;;;;;;;16.38;10.35;;;12.40;76.10;;;;;;5071880;28;20043;-72
2021/12/30 10:25:56;;;;;;;14.07;9.40;;;12.50;75.60;;;;;;5069727;28;20043;-72
2021/12/30 10:28:31;;;;;;;14.63;9.32;;;12.50;75.60;;;;;;5071698;28;20039;-73
2021/12/30 10:31:14;;;;;;;15.50;10.27;;;12.60;75.70;;;;;;5089064;28;20180;-74
2021/12/30 10:33:50;;;;;;;21.20;13.15;;;12.70;75.70;;;;;;5072388;28;20039;-73
2021/12/30 10:36:29;;;;;;;16.15;11.05;;;12.90;74.60;;;;;;5070480;28;20052;-74
2021/12/30 10:39:24;;;;;;;15.75;10.93;;;13.10;74.10;;;;;;5074262;28;20084;-72
2021/12/30 10:41:55;;;;;;;18.73;12.10;;;13.20;73.70;;;;;;5070930;28;20107;-73
2021/12/30 10:44:24;;;;;;;19.35;11.10;;;13.30;73.60;;;;;;5084599;28;20020;-72
2021/12/30 10:46:52;;;;;;;16.10;11.35;;;13.30;73.30;;;;;;5072779;28;20033;-74
2021/12/30 10:49:25;;;;;;;17.42;12.13;;;13.30;73.30;;;;;;5089724;28;20079;-73
2021/12/30 10:51:53;;;;;;;22.88;13.20;;;13.40;73.30;;;;;;5090728;28;20030;-73
2021/12/30 10:54:23;;;;;;;16.92;12.02;;;13.40;73.30;;;;;;5072859;28;20023;-74
2021/12/30 10:56:56;;;;;;;17.52;11.98;;;13.50;73.30;;;;;;5073260;28;20020;-73
2021/12/30 10:59:26;;;;;;;19.80;12.95;;;13.60;72.90;;;;;;5071965;28;20052;-72
2021/12/30 11:02:12;;;;;;;21.65;12.45;;;13.60;73.20;;;;;;5069786;28;20021;-70
2021/12/30 11:04:41;;;;;;;19.13;12.88;;;13.70;73.20;;;;;;5068823;28;20029;-70
2021/12/30 11:07:09;;;;;;;21.40;14.85;;;13.90;73.10;;;;;;5086883;28;20100;-71
2021/12/30 11:09:44;;;;;;;17.25;13.20;;;14.10;72.60;;;;;;5086064;28;20046;-70
2021/12/30 11:12:10;;;;;;;20.40;14.00;;;14.10;71.90;;;;;;5081442;28;20055;-63
2021/12/30 11:14:37;;;;;;;20.95;12.73;;;14.10;71.70;;;;;;5067200;28;21422;-62
2021/12/30 11:17:14;;;;;;;18.77;12.98;;;14.10;72.10;;;;;;5067021;28;20033;-62
2021/12/30 11:19:56;;;;;;;24.95;14.23;;;14.30;71.90;;;;;;5068965;28;20030;-63
2021/12/30 11:22:29;;;;;;;32.08;17.58;;;14.40;71.00;;;;;;5062998;28;20534;-61
2021/12/30 11:24:57;;;;;;;27.50;18.23;;;14.40;71.10;;;;;;5066709;28;20032;-61
2021/12/30 11:27:24;;;;;;;27.55;17.00;;;14.40;71.60;;;;;;5068589;28;20027;-61
2021/12/30 11:30:00;;;;;;;22.08;14.40;;;14.60;71.70;;;;;;5068492;28;20417;-62
2021/12/30 11:32:32;;;;;;;20.90;14.88;;;15.10;70.90;;;;;;5069016;28;20114;-61
2021/12/30 11:34:59;;;;;;;20.50;12.65;;;15.50;69.10;;;;;;5071067;28;20028;-63
2021/12/30 11:37:26;;;;;;;28.98;18.55;;;15.30;68.60;;;;;;5070814;28;20063;-61
2021/12/30 11:39:54;;;;;;;22.05;13.52;;;15.10;69.00;;;;;;5066705;28;20059;-63
2021/12/30 11:42:41;;;;;;;24.85;16.65;;;14.90;70.10;;;;;;5070121;28;20063;-62
2021/12/30 11:45:25;;;;;;;25.48;15.73;;;14.90;71.00;;;;;;5084053;28;20042;-64
2021/12/30 11:47:52;;;;;;;21.17;15.35;;;14.90;70.80;;;;;;5071711;28;20073;-66
2021/12/30 11:50:48;;;;;;;18.25;13.15;;;14.70;70.90;;;;;;5068020;28;20024;-66
2021/12/30 11:53:26;;;;;;;21.70;14.25;;;14.60;71.30;;;;;;5046205;28;20025;-65
2021/12/30 11:56:03;;;;;;;16.08;10.90;;;14.70;71.60;;;;;;5047756;28;20381;-65
2021/12/30 11:58:35;;;;;;;15.00;9.68;;;14.70;71.70;;;;;;5043088;28;20202;-64
2021/12/30 12:01:10;;;;;;;11.23;8.30;;;14.90;71.80;;;;;;5046735;28;20025;-63
2021/12/30 12:04:06;;;;;;;6.90;5.07;;;15.00;71.70;;;;;;5044745;28;20048;-65
2021/12/30 12:06:39;;;;;;;20.48;11.98;;;15.10;71.80;;;;;;5046549;28;20041;-65
2021/12/30 12:09:34;;;;;;;13.03;6.80;;;15.10;71.60;;;;;;5047582;28;20029;-64
2021/12/30 12:12:04;;;;;;;7.00;4.75;;;15.20;71.50;;;;;;5046290;28;20041;-64
2021/12/30 12:14:34;;;;;;;8.43;3.75;;;15.30;71.30;;;;;;5046888;28;20037;-61
2021/12/30 12:17:19;;;;;;;13.25;6.25;;;15.50;71.10;;;;;;5021221;28;20045;-61
2021/12/30 12:19:50;;;;;;;6.32;3.40;;;15.60;70.80;;;;;;5046996;28;20033;-62
2021/12/30 12:22:18;;;;;;;9.32;5.45;;;15.70;70.70;;;;;;5029600;28;20029;-61
2021/12/30 12:25:04;;;;;;;11.60;7.38;;;15.90;70.50;;;;;;5048695;28;20112;-63
2021/12/30 12:27:34;;;;;;;15.65;10.50;;;15.90;69.30;;;;;;5034575;28;20624;-62
2021/12/30 12:30:00;;;;;;;18.67;12.70;;;15.90;69.50;;;;;;5066082;28;20037;-62
2021/12/30 12:32:29;;;;;;;19.25;13.50;;;15.80;69.30;;;;;;5070262;28;20047;-62
2021/12/30 12:34:59;;;;;;;17.42;13.30;;;15.90;69.60;;;;;;5075606;28;20244;-62
2021/12/30 12:37:36;;;;;;;22.52;13.98;;;15.90;69.40;;;;;;5093179;28;20124;-63
2021/12/30 12:40:25;;;;;;;18.92;15.00;;;15.80;69.60;;;;;;5085302;28;20043;-63
2021/12/30 12:42:50;;;;;;;25.67;16.98;;;15.70;69.50;;;;;;5072290;28;20101;-64
2021/12/30 12:45:41;;;;;;;34.17;23.77;;;15.50;70.20;;;;;;5072230;28;20150;-63
2021/12/30 12:48:16;;;;;;;33.53;21.20;;;15.40;70.70;;;;;;5071170;28;20036;-62